CBR weather

Canberra International Airport
Canberra, Australian Capital Territory, Australia

Public forecast

Using degrees Celsius for public forecast. Weather courtesy of forecast.io.

METAR (pilot weather report)

Retrieved 2017/05/28 06:30 UTC (0 seconds ago):

YSCB 280630Z 31014KT 9999 FEW030 11/04 Q1009 FM0630 MOD/SEV TURB BLW 5000FT FM0630 31020G30KT 9999 SCT030 SCT050 FM0700 30014KT 9999 SCT025 BKN040 RMK USE TAF FOR ARRIVALS AFTER 0800Z

TAF (pilot weather forecast)

Retrieved 2017/05/28 06:00 UTC (29 minutes ago):

TAF YSCB 280500Z 2806/2906 31020G30KT 9999 -SHRA SCT030 SCT050 FM280700 30014KT 9999 SCT025 BKN040 FM281200 28010KT 9999 -SHRA SCT020 BKN030 FM281800 27010KT 9999 BKN025 FM282300 27014KT 9999 SCT040 INTER 2813/2816 7000 -SHRA BKN020